KGPT

Gulfport-Biloxi International Airport

Gulfport, Mississippi, USA
METAR KGPT 230003Z 12012KT 9SM BKN007 BKN044 OVC055 23/22 A3029 RMK AO2 T02280217
Observed Flight Rules
Feb-23 @ 00:03 UTC (24 minutes ago) Instrument Flight Rules
Wind Visibility Clouds
120° at 12 knots 9 miles
  • Broken at 700' AGL
  • Broken at 4,400' AGL
  • Overcast at 5,500' AGL
Temperatures Readings
Current 23°C / 73°F
Dewpoint 22°C / 72°F
Humidity 94%
Altimeter 30.29" Hg
Pressure 1026 hPa
Elevation 14
METAR KGPT 230003Z 12012KT 9SM BKN007 BKN044 OVC055 23/22 A3029 RMK AO2 T02280217
Observed Flight Rules
Feb-23 @ 00:03 UTC
(24 minutes ago)
IFR
Wind Visibility
120° at 12 knots 9 miles
Clouds
  • Broken at 700' AGL
  • Broken at 4,400' AGL
  • Overcast at 5,500' AGL
Temperature Dewpoint
23°C / 73°F 22°C / 72°F
Humidity Altimeter Pressure
94% 30.29" Hg 1026 hPa